createdAt,value
2023-02-09T00:01:24.928Z,98332.06
2023-02-09T00:03:52.177Z,98328.16
2023-02-09T00:06:21.182Z,98322.59
2023-02-09T00:08:48.223Z,98331.75
2023-02-09T00:11:47.385Z,98334.84
2023-02-09T00:14:17.354Z,98327.03
2023-02-09T00:16:44.357Z,98332.38
2023-02-09T00:19:11.972Z,98330.41
2023-02-09T00:21:39.393Z,98341.63
2023-02-09T00:24:06.942Z,98335.31
2023-02-09T00:26:33.646Z,98338.25
2023-02-09T00:29:00.098Z,98339.75
2023-02-09T00:31:26.582Z,98341.50
2023-02-09T00:33:52.985Z,98342.00
2023-02-09T00:36:19.431Z,98348.34
2023-02-09T00:38:45.837Z,98344.94
2023-02-09T00:41:13.745Z,98346.91
2023-02-09T00:43:41.205Z,98341.19
2023-02-09T00:46:08.461Z,98343.47
2023-02-09T00:48:35.299Z,98338.63
2023-02-09T00:51:02.098Z,98346.28
2023-02-09T00:53:28.626Z,98344.50
2023-02-09T00:55:54.978Z,98345.81
2023-02-09T00:58:21.450Z,98352.66
2023-02-09T01:00:48.995Z,98347.94
2023-02-09T01:03:15.536Z,98351.69
2023-02-09T01:05:42.918Z,98348.44
2023-02-09T01:08:09.488Z,98352.50
2023-02-09T01:10:37.927Z,98346.31
2023-02-09T01:13:04.395Z,98351.06
2023-02-09T01:15:30.818Z,98345.34
2023-02-09T01:17:58.875Z,98351.03
2023-02-09T01:20:25.254Z,98335.56
2023-02-09T01:22:51.751Z,98344.84
2023-02-09T01:25:18.348Z,98341.59
2023-02-09T01:27:44.756Z,98337.53
2023-02-09T01:30:11.771Z,98337.84
2023-02-09T01:32:38.141Z,98344.53
2023-02-09T01:35:04.977Z,98331.34
2023-02-09T01:37:33.856Z,98337.69
2023-02-09T01:40:00.276Z,98331.00
2023-02-09T01:42:26.817Z,98334.41
2023-02-09T01:45:15.793Z,98323.66
2023-02-09T01:47:47.109Z,98322.03
2023-02-09T01:50:14.585Z,98321.06
2023-02-09T01:52:42.341Z,98320.44
2023-02-09T01:55:12.869Z,98316.50
2023-02-09T01:57:46.419Z,98311.47
2023-02-09T02:00:18.064Z,98317.47
2023-02-09T02:02:52.183Z,98314.53
2023-02-09T02:05:19.685Z,98311.78
2023-02-09T02:07:49.994Z,98306.25
2023-02-09T02:10:16.466Z,98302.81
2023-02-09T02:12:43.596Z,98308.84
2023-02-09T02:15:10.031Z,98303.81
2023-02-09T02:18:16.260Z,98307.56
2023-02-09T02:21:03.294Z,98308.19
2023-02-09T02:23:44.610Z,98308.84
2023-02-09T02:26:29.483Z,98302.00
2023-02-09T02:29:25.164Z,98302.19
2023-02-09T02:32:15.914Z,98297.63
2023-02-09T02:35:21.414Z,98299.94
2023-02-09T02:38:05.913Z,98293.41
2023-02-09T02:40:46.308Z,98283.97
2023-02-09T02:43:23.865Z,98288.84
2023-02-09T02:46:05.899Z,98288.84
2023-02-09T02:48:44.197Z,98279.25
2023-02-09T02:51:10.525Z,98278.63
2023-02-09T02:53:39.932Z,98287.19
2023-02-09T02:56:12.540Z,98291.47
2023-02-09T02:58:42.276Z,98281.38
2023-02-09T03:01:13.189Z,98273.13
2023-02-09T03:03:41.717Z,98278.13
2023-02-09T03:06:10.492Z,98283.00
2023-02-09T03:08:47.559Z,98285.59
2023-02-09T03:11:13.922Z,98276.16
2023-02-09T03:13:53.834Z,98279.13
2023-02-09T03:16:38.599Z,98279.44
2023-02-09T03:19:14.179Z,98273.25
2023-02-09T03:22:01.164Z,98272.44
2023-02-09T03:24:45.177Z,98273.41
2023-02-09T03:27:36.289Z,98261.69
2023-02-09T03:30:04.676Z,98273.13
2023-02-09T03:32:32.010Z,98267.09
2023-02-09T03:34:59.099Z,98272.78
2023-02-09T03:37:25.976Z,98280.75
2023-02-09T03:39:52.459Z,98276.84
2023-02-09T03:42:19.148Z,98284.34
2023-02-09T03:44:45.553Z,98274.41
2023-02-09T03:47:12.016Z,98270.50
2023-02-09T03:49:40.456Z,98266.94
2023-02-09T03:52:09.339Z,98270.38
2023-02-09T03:54:35.972Z,98264.19
2023-02-09T03:57:02.429Z,98265.16
2023-02-09T03:59:29.432Z,98257.50
2023-02-09T04:01:58.395Z,98256.03
2023-02-09T04:04:25.778Z,98261.22
2023-02-09T04:06:52.434Z,98261.88
2023-02-09T04:09:19.509Z,98259.47
2023-02-09T04:11:47.154Z,98260.78
2023-02-09T04:14:13.673Z,98262.22
2023-02-09T04:16:40.143Z,98252.28
2023-02-09T04:19:09.014Z,98253.78
2023-02-09T04:21:37.113Z,98251.50
2023-02-09T04:24:03.658Z,98257.97
2023-02-09T04:26:30.055Z,98254.09
2023-02-09T04:28:56.476Z,98254.06
2023-02-09T04:31:23.012Z,98252.78
2023-02-09T04:33:49.525Z,98244.34
2023-02-09T04:36:15.985Z,98242.38
2023-02-09T04:38:42.399Z,98249.03
2023-02-09T04:41:08.913Z,98242.53
2023-02-09T04:43:35.915Z,98254.09
2023-02-09T04:46:02.683Z,98253.63
2023-02-09T04:48:30.314Z,98261.72
2023-02-09T04:50:57.110Z,98259.97
2023-02-09T04:53:23.730Z,98256.84
2023-02-09T04:55:51.942Z,98259.13
2023-02-09T04:58:39.447Z,98262.72
2023-02-09T05:01:07.510Z,98260.13
2023-02-09T05:03:34.130Z,98261.25
2023-02-09T05:06:04.003Z,98260.78
2023-02-09T05:08:31.560Z,98261.41
2023-02-09T05:10:58.246Z,98260.78
2023-02-09T05:13:25.417Z,98258.66
2023-02-09T05:15:52.752Z,98263.22
2023-02-09T05:18:19.472Z,98274.41
2023-02-09T05:20:47.690Z,98269.06
2023-02-09T05:23:14.688Z,98262.25
2023-02-09T05:25:41.824Z,98262.56
2023-02-09T05:28:08.566Z,98263.19
2023-02-09T05:30:35.100Z,98266.63
2023-02-09T05:33:03.034Z,98268.59
2023-02-09T05:35:29.394Z,98280.44
2023-02-09T05:37:55.760Z,98279.78
2023-02-09T05:40:22.121Z,98280.94
2023-02-09T05:42:48.527Z,98277.84
2023-02-09T05:45:14.937Z,98274.28
2023-02-09T05:47:41.351Z,98274.91
2023-02-09T05:50:07.877Z,98277.19
2023-02-09T05:52:34.800Z,98280.44
2023-02-09T05:55:01.321Z,98281.41
2023-02-09T05:57:27.745Z,98285.16
2023-02-09T05:59:54.181Z,98278.16
2023-02-09T06:02:20.910Z,98287.91
2023-02-09T06:04:47.423Z,98281.56
2023-02-09T06:07:13.893Z,98284.03
2023-02-09T06:09:40.316Z,98278.50
2023-02-09T06:12:06.750Z,98282.06
2023-02-09T06:14:33.198Z,98289.22
2023-02-09T06:16:59.591Z,98291.84
2023-02-09T06:19:26.060Z,98285.34
2023-02-09T06:21:52.552Z,98286.97
2023-02-09T06:24:18.973Z,98281.09
2023-02-09T06:26:45.448Z,98282.56
2023-02-09T06:29:13.106Z,98285.63
2023-02-09T06:31:41.762Z,98288.09
2023-02-09T06:34:09.349Z,98289.38
2023-02-09T06:36:35.967Z,98287.56
2023-02-09T06:39:02.443Z,98288.56
2023-02-09T06:41:28.797Z,98292.16
2023-02-09T06:43:55.190Z,98291.19
2023-02-09T06:46:21.711Z,98291.50
2023-02-09T06:48:48.154Z,98289.56
2023-02-09T06:51:17.008Z,98293.41
2023-02-09T06:53:44.228Z,98300.56
2023-02-09T06:56:12.294Z,98294.44
2023-02-09T06:58:41.515Z,98295.38
2023-02-09T07:01:10.571Z,98295.72
2023-02-09T07:03:37.760Z,98300.94
2023-02-09T07:06:15.128Z,98308.91
2023-02-09T07:08:41.854Z,98308.06
2023-02-09T07:11:11.205Z,98311.63
2023-02-09T07:13:37.919Z,98310.84
2023-02-09T07:16:06.478Z,98312.13
2023-02-09T07:18:33.183Z,98318.19
2023-02-09T07:21:02.498Z,98306.47
2023-02-09T07:23:29.669Z,98309.72
2023-02-09T07:25:56.527Z,98318.00
2023-02-09T07:28:23.341Z,98320.44
2023-02-09T07:30:54.643Z,98320.78
2023-02-09T07:33:21.804Z,98323.34
2023-02-09T07:35:48.810Z,98318.47
2023-02-09T07:38:15.524Z,98318.50
2023-02-09T07:40:46.380Z,98317.19
2023-02-09T07:43:13.723Z,98317.84
2023-02-09T07:45:41.702Z,98318.34
2023-02-09T07:48:10.662Z,98319.47
2023-02-09T07:50:37.819Z,98321.28
2023-02-09T07:53:04.336Z,98317.53
2023-02-09T07:55:30.782Z,98319.47
2023-02-09T07:57:57.343Z,98317.53
2023-02-09T08:00:24.302Z,98322.13
2023-02-09T08:02:50.819Z,98325.66
2023-02-09T08:05:25.391Z,98330.22
2023-02-09T08:07:51.844Z,98322.91
2023-02-09T08:10:18.907Z,98330.72
2023-02-09T08:13:00.820Z,98321.78
2023-02-09T08:15:31.615Z,98326.00
2023-02-09T08:18:01.637Z,98321.94
2023-02-09T08:20:31.049Z,98332.81
2023-02-09T08:23:04.846Z,98333.19
2023-02-09T08:25:31.634Z,98325.66
2023-02-09T08:27:58.176Z,98332.34
2023-02-09T08:30:24.604Z,98338.34
2023-02-09T08:32:51.094Z,98340.97
2023-02-09T08:35:17.842Z,98330.53
2023-02-09T08:37:44.318Z,98337.41
2023-02-09T08:40:11.232Z,98335.94
2023-02-09T08:42:37.736Z,98331.38
2023-02-09T08:45:04.392Z,98331.84
2023-02-09T08:47:30.784Z,98338.22
2023-02-09T08:49:58.028Z,98341.66
2023-02-09T08:52:24.723Z,98334.97
2023-02-09T08:54:51.138Z,98333.16
2023-02-09T08:57:17.530Z,98338.38
2023-02-09T08:59:43.964Z,98340.16
2023-02-09T09:02:10.333Z,98342.28
2023-02-09T09:04:36.808Z,98342.28
2023-02-09T09:07:03.225Z,98340.16
2023-02-09T09:09:29.618Z,98343.91
2023-02-09T09:11:56.859Z,98343.91
2023-02-09T09:14:23.310Z,98345.69
2023-02-09T09:16:49.890Z,98347.81
2023-02-09T09:19:16.322Z,98344.69
2023-02-09T09:21:42.702Z,98352.69
2023-02-09T09:24:09.205Z,98352.50
2023-02-09T09:26:35.830Z,98351.00
2023-02-09T09:29:02.515Z,98355.13
2023-02-09T09:31:30.944Z,98361.16
2023-02-09T09:33:57.479Z,98372.69
2023-02-09T09:36:23.874Z,98363.56
2023-02-09T09:38:50.411Z,98370.56
2023-02-09T09:41:20.816Z,98367.66
2023-02-09T09:43:47.716Z,98362.94
2023-02-09T09:46:22.164Z,98362.25
2023-02-09T09:48:56.048Z,98354.47
2023-02-09T09:51:44.308Z,98364.06
2023-02-09T09:54:15.980Z,98363.59
2023-02-09T09:56:42.594Z,98352.97
2023-02-09T09:59:16.763Z,98355.56
2023-02-09T10:01:43.701Z,98356.06
2023-02-09T10:04:14.424Z,98352.63
2023-02-09T10:06:43.970Z,98352.22
2023-02-09T10:09:32.409Z,98351.03
2023-02-09T10:12:11.797Z,98354.63
2023-02-09T10:14:38.200Z,98356.22
2023-02-09T10:17:06.192Z,98356.88
2023-02-09T10:19:32.782Z,98363.34
2023-02-09T10:21:59.178Z,98362.66
2023-02-09T10:24:33.764Z,98354.78
2023-02-09T10:27:26.000Z,98354.44
2023-02-09T10:29:52.587Z,98357.69
2023-02-09T10:32:22.240Z,98352.75
2023-02-09T10:34:51.630Z,98350.09
2023-02-09T10:37:27.876Z,98352.16
2023-02-09T10:40:12.616Z,98348.09
2023-02-09T10:42:57.384Z,98348.09
2023-02-09T10:45:23.699Z,98350.16
2023-02-09T10:48:13.184Z,98345.19
2023-02-09T10:50:52.377Z,98337.09
2023-02-09T10:53:27.140Z,98328.00
2023-02-09T10:56:15.144Z,98331.78
2023-02-09T10:58:42.106Z,98328.59
2023-02-09T11:01:11.233Z,98326.84
2023-02-09T11:03:56.743Z,98325.13
2023-02-09T11:06:23.222Z,98312.94
2023-02-09T11:08:57.826Z,98319.56
2023-02-09T11:11:37.616Z,98314.25
2023-02-09T11:14:10.247Z,98308.38
2023-02-09T11:16:59.337Z,98310.31
2023-02-09T11:19:44.544Z,98306.19
2023-02-09T11:22:16.398Z,98301.88
2023-02-09T11:25:04.721Z,98303.13
2023-02-09T11:27:55.700Z,98290.84
2023-02-09T11:30:45.854Z,98294.59
2023-02-09T11:33:42.483Z,98279.81
2023-02-09T11:36:46.129Z,98284.72
2023-02-09T11:39:40.553Z,98281.38
2023-02-09T11:42:33.991Z,98274.44
2023-02-09T11:45:16.368Z,98274.00
2023-02-09T11:48:07.881Z,98265.13
2023-02-09T11:50:46.892Z,98261.09
2023-02-09T11:53:32.158Z,98256.38
2023-02-09T11:56:02.035Z,98249.78
2023-02-09T11:58:51.355Z,98246.28
2023-02-09T12:01:22.178Z,98248.16
2023-02-09T12:03:59.011Z,98236.88
2023-02-09T12:06:27.468Z,98222.09
2023-02-09T12:09:16.140Z,98226.34
2023-02-09T12:12:15.688Z,98220.84
2023-02-09T12:14:55.518Z,98220.03
2023-02-09T12:17:40.725Z,98216.31
2023-02-09T12:20:38.438Z,98207.16
2023-02-09T12:23:07.961Z,98217.16
2023-02-09T12:25:48.702Z,98210.03
2023-02-09T12:28:36.426Z,98202.66
2023-02-09T12:31:14.062Z,98198.25
2023-02-09T12:34:23.589Z,98201.13
2023-02-09T12:37:27.306Z,98190.47
2023-02-09T12:40:12.054Z,98189.28
2023-02-09T12:42:50.662Z,98187.31
2023-02-09T12:45:43.614Z,98178.66
2023-02-09T12:48:09.966Z,98180.63
2023-02-09T12:50:42.527Z,98181.38
2023-02-09T12:53:31.074Z,98176.31
2023-02-09T12:56:09.342Z,98168.09
2023-02-09T12:58:44.883Z,98174.97
2023-02-09T13:01:13.127Z,98159.28
2023-02-09T13:03:51.271Z,98166.09
2023-02-09T13:06:40.782Z,98164.16
2023-02-09T13:09:14.731Z,98170.03
2023-02-09T13:11:51.503Z,98164.06
2023-02-09T13:14:22.238Z,98162.31
2023-02-09T13:16:54.844Z,98160.09
2023-02-09T13:19:50.885Z,98162.34
2023-02-09T13:22:46.159Z,98156.47
2023-02-09T13:25:22.079Z,98153.31
2023-02-09T13:27:50.029Z,98158.00
2023-02-09T13:30:28.704Z,98153.69
2023-02-09T13:33:33.579Z,98155.94
2023-02-09T13:35:59.913Z,98151.50
2023-02-09T13:38:31.292Z,98144.63
2023-02-09T13:40:58.364Z,98145.50
2023-02-09T13:43:31.227Z,98137.09
2023-02-09T13:45:59.152Z,98143.84
2023-02-09T13:48:30.507Z,98150.16
2023-02-09T13:51:01.034Z,98135.88
2023-02-09T13:53:29.391Z,98145.31
2023-02-09T13:55:58.507Z,98144.03
2023-02-09T13:58:37.072Z,98147.28
2023-02-09T14:01:16.335Z,98150.44
2023-02-09T14:03:57.533Z,98141.75
2023-02-09T14:06:34.100Z,98145.44
2023-02-09T14:09:03.052Z,98144.03
2023-02-09T14:11:42.773Z,98146.66
2023-02-09T14:14:24.229Z,98150.13
2023-02-09T14:17:25.163Z,98146.28
2023-02-09T14:19:53.322Z,98144.31
2023-02-09T14:22:39.869Z,98137.06
2023-02-09T14:25:15.201Z,98142.19
2023-02-09T14:27:48.373Z,98141.97
2023-02-09T14:30:16.253Z,98135.84
2023-02-09T14:32:48.228Z,98136.94
2023-02-09T14:35:22.178Z,98136.66
2023-02-09T14:37:49.926Z,98136.56
2023-02-09T14:40:34.506Z,98138.56
2023-02-09T14:43:19.803Z,98136.56
2023-02-09T14:45:49.478Z,98142.28
2023-02-09T14:48:20.844Z,98144.13
2023-02-09T14:50:54.970Z,98137.91
2023-02-09T14:53:23.322Z,98139.88
2023-02-09T14:55:49.687Z,98129.81
2023-02-09T14:58:20.574Z,98138.66
2023-02-09T15:00:47.601Z,98141.44
2023-02-09T15:03:14.070Z,98144.50
2023-02-09T15:05:40.567Z,98147.94
2023-02-09T15:08:11.220Z,98147.94
2023-02-09T15:11:02.617Z,98143.88
2023-02-09T15:13:30.488Z,98145.44
2023-02-09T15:15:57.291Z,98148.41
2023-02-09T15:18:26.744Z,98151.88
2023-02-09T15:20:53.472Z,98151.34
2023-02-09T15:23:20.033Z,98152.72
2023-02-09T15:25:47.043Z,98160.81
2023-02-09T15:28:27.960Z,98156.25
2023-02-09T15:30:56.628Z,98156.25
2023-02-09T15:33:23.367Z,98150.13
2023-02-09T15:35:50.243Z,98151.28
2023-02-09T15:38:18.327Z,98152.91
2023-02-09T15:41:08.388Z,98158.13
2023-02-09T15:43:56.311Z,98161.47
2023-02-09T15:46:50.084Z,98156.41
2023-02-09T15:49:16.500Z,98159.84
2023-02-09T15:51:43.056Z,98154.34
2023-02-09T15:54:15.557Z,98153.19
2023-02-09T15:56:41.932Z,98153.53
2023-02-09T15:59:17.944Z,98157.69
2023-02-09T16:01:44.591Z,98161.94
2023-02-09T16:04:14.356Z,98164.56
2023-02-09T16:06:53.007Z,98163.19
2023-02-09T16:09:28.963Z,98163.09
2023-02-09T16:11:55.587Z,98169.78
2023-02-09T16:14:24.931Z,98161.94
2023-02-09T16:16:52.160Z,98168.56
2023-02-09T16:19:21.122Z,98170.00
2023-02-09T16:21:52.732Z,98172.34
2023-02-09T16:24:28.935Z,98169.84
2023-02-09T16:26:55.440Z,98174.63
2023-02-09T16:29:21.853Z,98165.16
2023-02-09T16:31:48.671Z,98166.19
2023-02-09T16:34:15.596Z,98166.03
2023-02-09T16:36:42.782Z,98174.19
2023-02-09T16:39:17.787Z,98177.78
2023-02-09T16:41:49.703Z,98180.47
2023-02-09T16:44:22.038Z,98182.50
2023-02-09T16:46:51.085Z,98180.06
2023-02-09T16:49:32.047Z,98183.44
2023-02-09T16:52:13.025Z,98182.31
2023-02-09T16:54:44.120Z,98174.91
2023-02-09T16:57:13.105Z,98181.97
2023-02-09T16:59:39.486Z,98176.47
2023-02-09T17:02:58.182Z,98184.75
2023-02-09T17:05:28.232Z,98180.16
2023-02-09T17:08:09.574Z,98185.22
2023-02-09T17:10:36.130Z,98183.72
2023-02-09T17:13:04.581Z,98182.13
2023-02-09T17:15:36.454Z,98187.19
2023-02-09T17:18:06.038Z,98185.97
2023-02-09T17:20:43.978Z,98183.56
2023-02-09T17:23:18.362Z,98184.91
2023-02-09T17:25:45.397Z,98192.59
2023-02-09T17:28:12.476Z,98186.47
2023-02-09T17:30:39.782Z,98192.38
2023-02-09T17:33:10.798Z,98191.59
2023-02-09T17:38:30.769Z,98197.41
2023-02-09T17:40:59.510Z,98196.75
2023-02-09T17:43:26.195Z,98203.22
2023-02-09T17:45:52.919Z,98194.50
2023-02-09T17:48:21.466Z,98199.63
2023-02-09T17:50:50.267Z,98198.47
2023-02-09T17:53:23.877Z,98193.13
2023-02-09T17:55:51.570Z,98195.09
2023-02-09T17:58:18.541Z,98199.09
2023-02-09T18:00:45.888Z,98198.00
2023-02-09T18:03:19.084Z,98200.53
2023-02-09T18:05:49.210Z,98191.66
2023-02-09T18:08:15.900Z,98197.69
2023-02-09T18:10:42.360Z,98198.78
2023-02-09T18:13:19.048Z,98201.16
2023-02-09T18:15:48.088Z,98196.59
2023-02-09T18:18:15.272Z,98201.59
2023-02-09T18:20:42.670Z,98197.72
2023-02-09T18:23:14.982Z,98212.00
2023-02-09T18:25:41.585Z,98207.03
2023-02-09T18:28:18.141Z,98218.03
2023-02-09T18:30:45.844Z,98193.66
2023-02-09T18:33:20.692Z,98205.06
2023-02-09T18:35:50.300Z,98217.78
2023-02-09T18:38:20.234Z,98205.25
2023-02-09T18:40:46.855Z,98206.69
2023-02-09T18:43:14.943Z,98217.59
2023-02-09T18:45:43.905Z,98220.53
2023-02-09T18:48:11.857Z,98233.84
2023-02-09T18:50:38.491Z,98230.50
2023-02-09T18:53:04.989Z,98231.31
2023-02-09T18:55:34.023Z,98241.22
2023-02-09T18:58:03.715Z,98237.81
2023-02-09T19:00:30.702Z,98240.09
2023-02-09T19:02:58.322Z,98240.25
2023-02-09T19:05:27.239Z,98253.13
2023-02-09T19:07:55.466Z,98241.72
2023-02-09T19:10:23.070Z,98235.19
2023-02-09T19:12:50.089Z,98245.41
2023-02-09T19:15:18.684Z,98254.41
2023-02-09T19:17:46.432Z,98248.53
2023-02-09T19:20:23.157Z,98252.75
2023-02-09T19:22:51.946Z,98258.28
2023-02-09T19:25:35.687Z,98249.81
2023-02-09T19:28:02.392Z,98249.66
2023-02-09T19:30:31.340Z,98244.38
2023-02-09T19:33:02.148Z,98251.41
2023-02-09T19:35:32.398Z,98247.69
2023-02-09T19:37:59.057Z,98241.00
2023-02-09T19:40:48.080Z,98245.09
2023-02-09T19:43:14.583Z,98249.16
2023-02-09T19:45:41.164Z,98251.63
2023-02-09T19:48:08.547Z,98247.53
2023-02-09T19:50:39.667Z,98248.38
2023-02-09T19:53:08.668Z,98246.44
2023-02-09T19:55:36.772Z,98244.44
2023-02-09T19:58:03.859Z,98240.44
2023-02-09T20:00:35.080Z,98251.00
2023-02-09T20:03:01.824Z,98254.22
2023-02-09T20:05:35.221Z,98255.03
2023-02-09T20:08:02.248Z,98244.16
2023-02-09T20:10:29.193Z,98253.59
2023-02-09T20:12:56.553Z,98256.53
2023-02-09T20:15:23.685Z,98266.63
2023-02-09T20:17:53.143Z,98262.56
2023-02-09T20:20:19.906Z,98268.41
2023-02-09T20:22:49.425Z,98266.44
2023-02-09T20:25:16.461Z,98273.28
2023-02-09T20:27:43.083Z,98278.16
2023-02-09T20:30:10.801Z,98263.69
2023-02-09T20:32:37.326Z,98255.41
2023-02-09T20:35:05.251Z,98270.03
2023-02-09T20:37:31.733Z,98274.09
2023-02-09T20:39:58.460Z,98270.84
2023-02-09T20:42:43.209Z,98275.72
2023-02-09T20:45:32.993Z,98268.75
2023-02-09T20:47:59.920Z,98279.97
2023-02-09T20:50:26.579Z,98277.50
2023-02-09T20:52:53.500Z,98279.31
2023-02-09T20:55:22.589Z,98273.63
2023-02-09T20:57:49.097Z,98274.44
2023-02-09T21:00:16.079Z,98286.44
2023-02-09T21:02:42.736Z,98284.66
2023-02-09T21:05:09.457Z,98284.03
2023-02-09T21:07:35.992Z,98295.06
2023-02-09T21:10:02.567Z,98292.44
2023-02-09T21:12:29.109Z,98294.38
2023-02-09T21:14:56.507Z,98300.59
2023-02-09T21:17:23.472Z,98301.84
2023-02-09T21:19:50.260Z,98293.44
2023-02-09T21:22:17.267Z,98299.69
2023-02-09T21:24:44.069Z,98292.75
2023-02-09T21:27:10.614Z,98298.88
2023-02-09T21:29:37.173Z,98303.13
2023-02-09T21:32:06.127Z,98304.28
2023-02-09T21:34:32.623Z,98296.59
2023-02-09T21:36:59.391Z,98291.09
2023-02-09T21:39:25.799Z,98290.44
2023-02-09T21:42:10.990Z,98295.63
2023-02-09T21:44:37.707Z,98290.63
2023-02-09T21:47:04.358Z,98294.56
2023-02-09T21:49:31.944Z,98297.31
2023-02-09T21:51:59.371Z,98290.47
2023-02-09T21:54:28.236Z,98295.84
2023-02-09T21:56:55.477Z,98293.69
2023-02-09T21:59:21.868Z,98294.94
2023-02-09T22:01:48.259Z,98294.50
2023-02-09T22:04:14.804Z,98295.00
2023-02-09T22:06:41.816Z,98290.28
2023-02-09T22:09:08.574Z,98278.56
2023-02-09T22:11:35.234Z,98277.59
2023-02-09T22:14:01.713Z,98268.56
2023-02-09T22:16:29.374Z,98269.56
2023-02-09T22:18:56.503Z,98274.19
2023-02-09T22:21:22.915Z,98275.38
2023-02-09T22:23:49.421Z,98275.94
2023-02-09T22:26:15.961Z,98272.97
2023-02-09T22:28:43.063Z,98269.47
2023-02-09T22:31:12.684Z,98274.34
2023-02-09T22:33:39.476Z,98277.03
2023-02-09T22:36:12.650Z,98272.88
2023-02-09T22:38:39.041Z,98277.34
2023-02-09T22:41:23.343Z,98277.69
2023-02-09T22:43:53.263Z,98278.97
2023-02-09T22:46:24.969Z,98275.22
2023-02-09T22:48:53.363Z,98276.22
2023-02-09T22:51:21.006Z,98277.41
2023-02-09T22:53:48.013Z,98277.72
2023-02-09T22:56:14.678Z,98269.91
2023-02-09T22:58:41.103Z,98273.34
2023-02-09T23:01:08.219Z,98271.09
2023-02-09T23:03:35.057Z,98271.75
2023-02-09T23:06:07.669Z,98280.41
2023-02-09T23:08:35.329Z,98278.22
2023-02-09T23:11:07.708Z,98272.25
2023-02-09T23:13:36.062Z,98273.06
2023-02-09T23:16:21.190Z,98277.69
2023-02-09T23:18:49.591Z,98271.91
2023-02-09T23:21:17.181Z,98277.78
2023-02-09T23:23:44.187Z,98269.84
2023-02-09T23:26:11.276Z,98271.81
2023-02-09T23:28:37.899Z,98266.91
2023-02-09T23:31:12.057Z,98270.88
2023-02-09T23:33:38.872Z,98270.09
2023-02-09T23:36:06.894Z,98271.06
2023-02-09T23:38:33.581Z,98266.66
2023-02-09T23:41:00.144Z,98261.53
2023-02-09T23:43:26.715Z,98263.13
2023-02-09T23:45:53.552Z,98262.94
2023-02-09T23:48:20.143Z,98254.06
2023-02-09T23:50:46.589Z,98246.97
2023-02-09T23:53:14.589Z,98256.66
2023-02-09T23:55:41.052Z,98251.56
2023-02-09T23:58:07.521Z,98254.28
